createdAt,value
2019-02-10T00:00:13.586Z,97713.47
2019-02-10T00:03:01.108Z,97714.30
2019-02-10T00:05:48.232Z,97716.84
2019-02-10T00:08:36.166Z,97713.87
2019-02-10T00:11:23.692Z,97715.71
2019-02-10T00:14:11.872Z,97703.30
2019-02-10T00:16:59.355Z,97704.67
2019-02-10T00:19:47.196Z,97704.28
2019-02-10T00:22:35.022Z,97699.81
2019-02-10T00:25:22.036Z,97686.28
2019-02-10T00:28:09.769Z,97683.22
2019-02-10T00:30:56.888Z,97685.84
2019-02-10T00:33:44.412Z,97676.34
2019-02-10T00:36:33.528Z,97677.68
2019-02-10T00:39:21.100Z,97681.32
2019-02-10T00:42:08.534Z,97670.09
2019-02-10T00:44:56.257Z,97665.97
2019-02-10T00:47:43.577Z,97672.84
2019-02-10T00:50:31.109Z,97668.45
2019-02-10T00:53:18.917Z,97662.19
2019-02-10T00:56:06.567Z,97652.48
2019-02-10T00:58:53.912Z,97657.41
2019-02-10T01:01:41.620Z,97662.88
2019-02-10T01:04:29.661Z,97653.11
2019-02-10T01:07:17.596Z,97648.33
2019-02-10T01:10:07.273Z,97645.17
2019-02-10T01:12:54.901Z,97639.96
2019-02-10T01:15:42.017Z,97640.34
2019-02-10T01:18:29.546Z,97633.20
2019-02-10T01:21:16.968Z,97631.23
2019-02-10T01:24:04.701Z,97621.01
2019-02-10T01:26:52.124Z,97612.89
2019-02-10T01:29:39.622Z,97611.69
2019-02-10T01:32:27.176Z,97604.86
2019-02-10T01:35:15.114Z,97599.70
2019-02-10T01:38:02.334Z,97597.83
2019-02-10T01:40:49.755Z,97601.13
2019-02-10T01:43:37.282Z,97592.64
2019-02-10T01:46:24.812Z,97589.83
2019-02-10T01:49:12.340Z,97574.29
2019-02-10T01:52:00.074Z,97566.80
2019-02-10T01:54:47.392Z,97558.19
2019-02-10T01:57:34.715Z,97552.23
2019-02-10T02:00:22.449Z,97557.67
2019-02-10T02:03:09.969Z,97548.42
2019-02-10T02:05:57.494Z,97538.11
2019-02-10T02:08:44.817Z,97535.80
2019-02-10T02:11:32.445Z,97536.55
2019-02-10T02:14:19.564Z,97535.77
2019-02-10T02:17:08.218Z,97525.70
2019-02-10T02:19:55.975Z,97511.83
2019-02-10T02:22:43.371Z,97515.63
2019-02-10T02:25:31.002Z,97505.86
2019-02-10T02:28:18.114Z,97495.20
2019-02-10T02:31:05.541Z,97503.20
2019-02-10T02:33:52.964Z,97489.80
2019-02-10T02:36:43.768Z,97501.64
2019-02-10T02:39:31.911Z,97493.20
2019-02-10T02:42:19.332Z,97490.33
2019-02-10T02:45:09.305Z,97495.20
2019-02-10T02:47:56.742Z,97478.73
2019-02-10T02:50:44.379Z,97480.23
2019-02-10T02:53:31.896Z,97467.09
2019-02-10T02:56:19.627Z,97455.45
2019-02-10T02:59:06.745Z,97440.63
2019-02-10T03:01:54.168Z,97440.86
2019-02-10T03:04:42.015Z,97431.49
2019-02-10T03:07:29.735Z,97415.73
2019-02-10T03:10:17.466Z,97418.11
2019-02-10T03:13:04.786Z,97416.14
2019-02-10T03:15:52.211Z,97410.09
2019-02-10T03:18:39.533Z,97394.99
2019-02-10T03:21:27.372Z,97393.44
2019-02-10T03:24:14.697Z,97385.59
2019-02-10T03:27:01.705Z,97367.78
2019-02-10T03:29:49.138Z,97368.77
2019-02-10T03:32:36.475Z,97353.72
2019-02-10T03:35:24.025Z,97350.69
2019-02-10T03:38:11.401Z,97348.44
2019-02-10T03:40:58.825Z,97351.51
2019-02-10T03:43:46.248Z,97348.77
2019-02-10T03:46:33.774Z,97348.77
2019-02-10T03:49:22.531Z,97339.45
2019-02-10T03:52:09.854Z,97330.94
2019-02-10T03:54:57.172Z,97331.93
2019-02-10T03:57:44.495Z,97319.89
2019-02-10T04:00:32.135Z,97315.16
2019-02-10T04:03:19.567Z,97310.13
2019-02-10T04:06:07.178Z,97304.19
2019-02-10T04:08:54.600Z,97296.63
2019-02-10T04:11:42.230Z,97299.87
2019-02-10T04:14:29.345Z,97290.23
2019-02-10T04:17:16.872Z,97289.80
2019-02-10T04:20:06.796Z,97278.00
2019-02-10T04:22:53.950Z,97282.58
2019-02-10T04:25:41.297Z,97263.98
2019-02-10T04:28:28.722Z,97262.00
2019-02-10T04:31:16.656Z,97254.92
2019-02-10T04:34:03.873Z,97240.10
2019-02-10T04:36:51.608Z,97230.33
2019-02-10T04:39:39.349Z,97236.45
2019-02-10T04:42:27.175Z,97221.02
2019-02-10T04:45:14.599Z,97212.39
2019-02-10T04:48:02.120Z,97198.55
2019-02-10T04:50:49.954Z,97181.70
2019-02-10T04:53:37.481Z,97174.27
2019-02-10T04:56:24.904Z,97169.72
2019-02-10T04:59:12.431Z,97165.33
2019-02-10T05:02:00.066Z,97151.22
2019-02-10T05:04:47.383Z,97145.20
2019-02-10T05:07:34.807Z,97127.17
2019-02-10T05:10:22.335Z,97131.59
2019-02-10T05:13:10.173Z,97113.73
2019-02-10T05:15:57.494Z,97103.09
2019-02-10T05:18:45.274Z,97107.48
2019-02-10T05:21:32.646Z,97099.86
2019-02-10T05:24:19.763Z,97095.16
2019-02-10T05:27:07.093Z,97100.08
2019-02-10T05:29:54.507Z,97100.47
2019-02-10T05:32:41.831Z,97085.70
2019-02-10T05:35:28.946Z,97091.92
2019-02-10T05:38:17.502Z,97070.07
2019-02-10T05:41:05.238Z,97074.56
2019-02-10T05:43:52.244Z,97060.27
2019-02-10T05:46:39.878Z,97055.41
2019-02-10T05:49:27.709Z,97055.75
2019-02-10T05:52:15.640Z,97046.16
2019-02-10T05:55:02.889Z,97032.36
2019-02-10T05:57:50.490Z,97025.09
2019-02-10T06:00:37.810Z,97016.78
2019-02-10T06:03:24.898Z,97014.53
2019-02-10T06:06:12.968Z,97007.78
2019-02-10T06:08:59.982Z,96987.50
2019-02-10T06:11:48.641Z,96980.91
2019-02-10T06:14:36.269Z,96974.78
2019-02-10T06:17:23.586Z,96976.47
2019-02-10T06:20:12.237Z,96969.50
2019-02-10T06:22:59.461Z,96959.84
2019-02-10T06:25:47.600Z,96952.02
2019-02-10T06:28:35.328Z,96944.92
2019-02-10T06:31:23.059Z,96949.89
2019-02-10T06:34:10.690Z,96940.24
2019-02-10T06:36:58.351Z,96935.50
2019-02-10T06:39:46.370Z,96921.75
2019-02-10T06:42:34.090Z,96916.97
2019-02-10T06:45:22.126Z,96905.47
2019-02-10T06:48:09.448Z,96910.42
2019-02-10T06:50:56.976Z,96902.89
2019-02-10T06:53:44.402Z,96896.53
2019-02-10T06:56:31.824Z,96892.64
2019-02-10T06:59:20.797Z,96893.73
2019-02-10T07:02:12.918Z,96877.52
2019-02-10T07:05:00.750Z,96864.28
2019-02-10T07:07:48.484Z,96851.04
2019-02-10T07:10:36.316Z,96864.19
2019-02-10T07:13:26.855Z,96859.91
2019-02-10T07:16:40.351Z,96850.26
2019-02-10T07:19:53.577Z,96848.38
2019-02-10T07:22:44.278Z,96831.78
2019-02-10T07:25:43.318Z,96840.20
2019-02-10T07:28:34.077Z,96828.02
2019-02-10T07:31:22.012Z,96823.73
2019-02-10T07:34:21.418Z,96813.33
2019-02-10T07:37:11.750Z,96805.02
2019-02-10T07:40:13.728Z,96786.33
2019-02-10T07:43:22.615Z,96786.19
2019-02-10T07:46:13.302Z,96782.55
2019-02-10T07:49:12.991Z,96766.69
2019-02-10T07:52:30.349Z,96775.39
2019-02-10T07:55:27.189Z,96763.16
2019-02-10T07:58:24.132Z,96759.78
2019-02-10T08:01:26.917Z,96744.45
2019-02-10T08:04:39.940Z,96742.11
2019-02-10T08:07:50.304Z,96722.47
2019-02-10T08:11:17.686Z,96725.38
2019-02-10T08:14:28.006Z,96718.81
2019-02-10T08:17:21.285Z,96694.83
2019-02-10T08:20:30.214Z,96698.61
2019-02-10T08:23:26.852Z,96673.91
2019-02-10T08:26:17.558Z,96662.67
2019-02-10T08:29:08.154Z,96665.33
2019-02-10T08:32:20.163Z,96645.52
2019-02-10T08:35:19.868Z,96642.70
2019-02-10T08:38:16.313Z,96631.16
2019-02-10T08:41:28.306Z,96605.88
2019-02-10T08:44:42.283Z,96586.38
2019-02-10T08:47:38.783Z,96585.23
2019-02-10T08:50:44.133Z,96561.98
2019-02-10T08:53:31.474Z,96556.96
2019-02-10T08:56:18.772Z,96535.13
2019-02-10T08:59:05.889Z,96532.96
2019-02-10T09:01:54.273Z,96522.27
2019-02-10T09:04:41.250Z,96509.02
2019-02-10T09:07:31.337Z,96495.05
2019-02-10T09:10:18.717Z,96501.17
2019-02-10T09:13:06.394Z,96488.55
2019-02-10T09:15:54.122Z,96507.31
2019-02-10T09:18:41.440Z,96499.84
2019-02-10T09:21:28.765Z,96487.16
2019-02-10T09:24:16.086Z,96486.33
2019-02-10T09:27:03.613Z,96479.80
2019-02-10T09:29:51.341Z,96475.40
2019-02-10T09:32:39.092Z,96466.98
2019-02-10T09:35:26.609Z,96485.05
2019-02-10T09:38:14.974Z,96478.31
2019-02-10T09:41:01.959Z,96471.70
2019-02-10T09:43:49.486Z,96480.15
2019-02-10T09:46:37.028Z,96462.47
2019-02-10T09:49:24.448Z,96464.59
2019-02-10T09:52:12.067Z,96473.33
2019-02-10T09:54:59.696Z,96451.70
2019-02-10T09:57:46.812Z,96443.86
2019-02-10T10:00:34.549Z,96437.81
2019-02-10T10:03:21.866Z,96441.42
2019-02-10T10:06:09.083Z,96436.10
2019-02-10T10:08:56.715Z,96435.90
2019-02-10T10:11:44.158Z,96417.52
2019-02-10T10:14:31.927Z,96413.88
2019-02-10T10:17:19.907Z,96415.98
2019-02-10T10:20:15.838Z,96406.53
2019-02-10T10:23:03.667Z,96399.32
2019-02-10T10:25:50.785Z,96391.07
2019-02-10T10:28:38.207Z,96386.73
2019-02-10T10:31:25.550Z,96380.48
2019-02-10T10:34:12.604Z,96375.28
2019-02-10T10:36:59.890Z,96365.17
2019-02-10T10:39:47.295Z,96349.80
2019-02-10T10:42:34.918Z,96353.30
2019-02-10T10:45:22.545Z,96350.20
2019-02-10T10:48:09.870Z,96349.28
2019-02-10T10:50:57.504Z,96346.25
2019-02-10T10:53:45.024Z,96341.52
2019-02-10T10:56:32.741Z,96328.13
2019-02-10T10:59:20.385Z,96314.55
2019-02-10T11:02:07.708Z,96325.27
2019-02-10T11:04:54.723Z,96317.14
2019-02-10T11:07:42.455Z,96311.80
2019-02-10T11:10:29.983Z,96306.14
2019-02-10T11:13:17.129Z,96302.72
2019-02-10T11:16:04.520Z,96294.12
2019-02-10T11:18:52.251Z,96293.01
2019-02-10T11:21:39.781Z,96285.18
2019-02-10T11:24:28.651Z,96269.00
2019-02-10T11:27:16.264Z,96267.80
2019-02-10T11:30:04.078Z,96253.42
2019-02-10T11:32:51.525Z,96258.13
2019-02-10T11:35:39.157Z,96249.61
2019-02-10T11:38:27.989Z,96248.45
2019-02-10T11:41:15.292Z,96238.81
2019-02-10T11:44:03.271Z,96243.83
2019-02-10T11:46:50.386Z,96246.52
2019-02-10T11:49:37.604Z,96234.75
2019-02-10T11:52:24.824Z,96224.20
2019-02-10T11:55:12.735Z,96232.36
2019-02-10T11:58:00.184Z,96213.32
2019-02-10T12:00:47.612Z,96210.27
2019-02-10T12:03:35.239Z,96197.94
2019-02-10T12:06:22.721Z,96186.79
2019-02-10T12:09:10.391Z,96188.91
2019-02-10T12:11:57.838Z,96180.20
2019-02-10T12:14:45.143Z,96174.75
2019-02-10T12:17:32.638Z,96172.65
2019-02-10T12:20:20.291Z,96156.21
2019-02-10T12:23:07.516Z,96149.97
2019-02-10T12:25:54.835Z,96159.26
2019-02-10T12:28:42.975Z,96139.70
2019-02-10T12:31:30.304Z,96145.50
2019-02-10T12:34:18.240Z,96137.53
2019-02-10T12:37:05.147Z,96139.06
2019-02-10T12:39:59.682Z,96135.52
2019-02-10T12:42:41.331Z,96127.97
2019-02-10T12:45:29.058Z,96123.13
2019-02-10T12:48:16.482Z,96108.89
2019-02-10T12:51:04.108Z,96098.84
2019-02-10T12:53:51.635Z,96105.23
2019-02-10T12:56:39.062Z,96086.72
2019-02-10T12:59:26.584Z,96088.27
2019-02-10T13:02:14.117Z,96087.61
2019-02-10T13:05:01.703Z,96073.11
2019-02-10T13:07:49.273Z,96063.84
2019-02-10T13:10:36.771Z,96078.72
2019-02-10T13:13:24.322Z,96058.55
2019-02-10T13:16:11.746Z,96055.86
2019-02-10T13:18:59.281Z,96050.19
2019-02-10T13:21:47.027Z,96051.02
2019-02-10T13:24:34.629Z,96053.86
2019-02-10T13:27:22.261Z,96039.90
2019-02-10T13:30:18.285Z,96034.44
2019-02-10T13:33:05.508Z,96032.33
2019-02-10T13:35:52.927Z,96027.76
2019-02-10T13:38:40.559Z,96016.48
2019-02-10T13:41:37.605Z,96018.79
2019-02-10T13:44:24.825Z,96020.02
2019-02-10T13:47:12.352Z,96008.59
2019-02-10T13:49:59.468Z,96004.32
2019-02-10T13:52:46.792Z,96002.05
2019-02-10T13:55:34.731Z,96002.64
2019-02-10T13:58:21.850Z,96006.94
2019-02-10T14:01:09.476Z,95989.55
2019-02-10T14:03:56.802Z,95997.28
2019-02-10T14:06:45.256Z,95992.68
2019-02-10T14:09:32.805Z,95986.05
2019-02-10T14:12:20.607Z,95984.30
2019-02-10T14:15:10.765Z,95981.97
2019-02-10T14:17:57.911Z,95990.72
2019-02-10T14:20:45.337Z,95976.30
2019-02-10T14:23:32.483Z,95977.05
2019-02-10T14:26:20.084Z,95973.83
2019-02-10T14:29:07.612Z,95972.30
2019-02-10T14:31:55.247Z,95971.58
2019-02-10T14:34:42.664Z,95980.81
2019-02-10T14:37:30.393Z,95973.50
2019-02-10T14:40:17.647Z,95979.21
2019-02-10T14:43:05.446Z,95972.97
2019-02-10T14:45:52.973Z,95967.89
2019-02-10T14:48:40.315Z,95964.36
2019-02-10T14:51:27.927Z,95970.34
2019-02-10T14:54:15.358Z,95962.47
2019-02-10T14:57:02.983Z,95972.17
2019-02-10T14:59:50.830Z,95958.52
2019-02-10T15:02:38.443Z,95952.02
2019-02-10T15:05:25.555Z,95953.73
2019-02-10T15:08:12.980Z,95948.28
2019-02-10T15:11:00.096Z,95942.82
2019-02-10T15:13:47.625Z,95935.59
2019-02-10T15:16:35.153Z,95934.69
2019-02-10T15:19:23.292Z,95936.19
2019-02-10T15:22:10.818Z,95930.14
2019-02-10T15:24:59.367Z,95926.89
2019-02-10T15:27:47.722Z,95925.98
2019-02-10T15:30:35.138Z,95927.86
2019-02-10T15:33:22.798Z,95928.41
2019-02-10T15:36:10.191Z,95933.28
2019-02-10T15:38:57.818Z,95939.81
2019-02-10T15:41:45.553Z,95932.73
2019-02-10T15:44:33.389Z,95937.27
2019-02-10T15:47:20.909Z,95931.97
2019-02-10T15:50:11.717Z,95927.17
2019-02-10T15:52:59.662Z,95934.39
2019-02-10T15:55:47.385Z,95941.70
2019-02-10T15:58:35.012Z,95927.52
2019-02-10T16:01:22.331Z,95931.37
2019-02-10T16:04:09.963Z,95923.06
2019-02-10T16:06:57.484Z,95930.77
2019-02-10T16:09:45.421Z,95933.10
2019-02-10T16:12:32.949Z,95950.86
2019-02-10T16:15:20.473Z,95949.67
2019-02-10T16:18:07.604Z,95945.70
2019-02-10T16:21:07.510Z,95942.98
2019-02-10T16:23:55.035Z,95943.78
2019-02-10T16:26:42.667Z,95938.23
2019-02-10T16:29:30.599Z,95943.26
2019-02-10T16:32:18.433Z,95809.35
2019-02-10T16:35:08.177Z,95947.70
2019-02-10T16:37:55.225Z,95952.95
2019-02-10T16:40:42.984Z,95947.88
2019-02-10T16:43:30.487Z,95955.09
2019-02-10T16:46:17.808Z,95945.84
2019-02-10T16:49:05.541Z,95950.16
2019-02-10T16:51:52.963Z,95954.44
2019-02-10T16:54:40.386Z,95961.99
2019-02-10T16:57:28.021Z,95970.64
2019-02-10T17:00:18.922Z,95968.56
2019-02-10T17:03:07.783Z,95973.06
2019-02-10T17:05:55.715Z,95986.92
2019-02-10T17:08:43.139Z,95985.05
2019-02-10T17:11:30.462Z,95987.58
2019-02-10T17:14:17.986Z,95985.27
2019-02-10T17:17:05.717Z,95991.02
2019-02-10T17:19:53.567Z,95987.56
2019-02-10T17:22:41.342Z,95992.78
2019-02-10T17:25:29.958Z,95992.87
2019-02-10T17:28:18.792Z,96012.44
2019-02-10T17:31:06.013Z,96004.14
2019-02-10T17:33:53.339Z,96015.06
2019-02-10T17:36:40.758Z,96023.98
2019-02-10T17:39:28.490Z,96024.19
2019-02-10T17:42:15.812Z,96027.41
2019-02-10T17:45:04.878Z,96024.99
2019-02-10T17:47:52.608Z,96039.46
2019-02-10T17:50:39.969Z,96035.84
2019-02-10T17:53:27.050Z,96049.83
2019-02-10T17:56:14.885Z,96059.22
2019-02-10T17:59:02.512Z,96059.31
2019-02-10T18:01:49.832Z,96062.38
2019-02-10T18:04:37.717Z,96070.70
2019-02-10T18:07:25.503Z,96082.91
2019-02-10T18:10:14.768Z,96071.94
2019-02-10T18:13:02.103Z,95577.55
2019-02-10T18:16:03.641Z,96096.71
2019-02-10T18:19:02.025Z,96094.83
2019-02-10T18:22:02.961Z,96093.02
2019-02-10T18:24:52.342Z,96096.67
2019-02-10T18:27:56.351Z,96088.43
2019-02-10T18:30:54.112Z,96087.05
2019-02-10T18:33:45.737Z,96077.59
2019-02-10T18:36:50.872Z,96087.83
2019-02-10T18:39:40.153Z,96087.46
2019-02-10T18:42:31.763Z,96094.77
2019-02-10T18:45:20.725Z,96112.08
2019-02-10T18:48:15.418Z,96116.13
2019-02-10T18:51:04.219Z,96109.16
2019-02-10T18:53:53.548Z,96113.63
2019-02-10T18:56:46.093Z,96117.17
2019-02-10T18:59:39.350Z,96126.23
2019-02-10T19:02:44.385Z,96138.78
2019-02-10T19:05:49.934Z,96132.84
2019-02-10T19:08:39.417Z,96136.66
2019-02-10T19:11:28.676Z,96149.25
2019-02-10T19:14:23.368Z,96154.03
2019-02-10T19:17:15.399Z,96147.68
2019-02-10T19:20:04.227Z,96144.68
2019-02-10T19:22:53.323Z,96156.25
2019-02-10T19:25:51.497Z,96154.16
2019-02-10T19:28:42.365Z,96170.62
2019-02-10T19:31:33.826Z,96190.92
2019-02-10T19:34:38.857Z,96186.34
2019-02-10T19:37:44.305Z,96206.57
2019-02-10T19:40:45.557Z,96195.19
2019-02-10T19:43:43.217Z,96199.39
2019-02-10T19:46:44.574Z,96223.67
2019-02-10T19:49:33.632Z,96214.86
2019-02-10T19:52:25.362Z,96227.98
2019-02-10T19:55:14.520Z,96224.53
2019-02-10T19:58:19.761Z,96237.70
2019-02-10T20:01:18.716Z,96241.16
2019-02-10T20:04:10.794Z,96235.27
2019-02-10T20:06:59.898Z,96248.83
2019-02-10T20:09:49.322Z,96249.70
2019-02-10T20:12:54.768Z,96252.55
2019-02-10T20:15:50.149Z,96246.26
2019-02-10T20:18:41.907Z,96246.66
2019-02-10T20:21:31.174Z,96248.84
2019-02-10T20:24:21.668Z,96266.22
2019-02-10T20:27:26.603Z,96255.78
2019-02-10T20:30:24.372Z,96270.05
2019-02-10T20:33:19.492Z,96273.28
2019-02-10T20:36:11.916Z,96274.87
2019-02-10T20:39:01.190Z,96280.21
2019-02-10T20:41:53.944Z,96268.95
2019-02-10T20:44:51.961Z,96259.61
2019-02-10T20:47:43.679Z,96267.25
2019-02-10T20:50:32.591Z,96262.03
2019-02-10T20:53:39.166Z,96261.22
2019-02-10T20:56:36.746Z,96266.22
2019-02-10T20:59:37.356Z,96260.81
2019-02-10T21:02:39.230Z,96269.36
2019-02-10T21:05:31.250Z,96290.45
2019-02-10T21:08:20.119Z,96281.50
2019-02-10T21:11:09.375Z,96296.08
2019-02-10T21:14:14.697Z,96283.32
2019-02-10T21:17:04.910Z,96295.79
2019-02-10T21:20:09.639Z,96301.70
2019-02-10T21:23:15.088Z,96293.14
2019-02-10T21:26:04.767Z,96309.60
2019-02-10T21:29:08.741Z,96301.56
2019-02-10T21:32:14.014Z,96311.59
2019-02-10T21:35:03.286Z,96272.63
2019-02-10T21:37:58.597Z,96318.04
2019-02-10T21:41:03.937Z,96328.72
2019-02-10T21:43:53.624Z,96325.11
2019-02-10T21:46:42.990Z,96327.09
2019-02-10T21:49:30.622Z,96337.37
2019-02-10T21:52:17.937Z,96332.55
2019-02-10T21:55:07.615Z,96340.98
2019-02-10T21:57:54.936Z,96343.50
2019-02-10T22:00:42.772Z,96350.34
2019-02-10T22:03:30.101Z,96347.23
2019-02-10T22:06:17.705Z,96348.84
2019-02-10T22:09:05.972Z,96347.73
2019-02-10T22:11:53.388Z,96346.60
2019-02-10T22:14:40.914Z,96356.92
2019-02-10T22:17:28.338Z,96357.91
2019-02-10T22:20:15.878Z,96371.49
2019-02-10T22:23:03.398Z,96377.48
2019-02-10T22:25:50.725Z,96372.59
2019-02-10T22:28:38.344Z,96386.86
2019-02-10T22:31:25.869Z,96386.76
2019-02-10T22:34:13.297Z,96392.02
2019-02-10T22:37:00.721Z,96401.73
2019-02-10T22:39:47.998Z,96399.53
2019-02-10T22:42:35.671Z,96408.67
2019-02-10T22:45:22.791Z,96414.72
2019-02-10T22:48:10.209Z,96422.99
2019-02-10T22:50:57.535Z,96426.71
2019-02-10T22:53:44.542Z,96429.80
2019-02-10T22:56:32.069Z,96443.94
2019-02-10T22:59:19.813Z,96444.63
2019-02-10T23:02:07.714Z,96447.55
2019-02-10T23:04:54.959Z,96452.27
2019-02-10T23:07:42.692Z,96460.20
2019-02-10T23:10:30.626Z,96455.63
2019-02-10T23:13:18.664Z,96460.26
2019-02-10T23:16:06.191Z,96476.47
2019-02-10T23:18:54.229Z,96477.80
2019-02-10T23:21:41.654Z,96496.61
2019-02-10T23:24:29.081Z,96495.36
2019-02-10T23:27:16.298Z,96499.66
2019-02-10T23:30:04.903Z,96519.14
2019-02-10T23:32:52.586Z,96524.81
2019-02-10T23:35:40.106Z,96519.83
2019-02-10T23:38:27.121Z,96538.98
2019-02-10T23:41:14.746Z,96554.27
2019-02-10T23:44:02.277Z,96566.09
2019-02-10T23:46:49.800Z,96571.52
2019-02-10T23:49:37.126Z,96560.37
2019-02-10T23:52:24.653Z,96568.77
2019-02-10T23:55:12.177Z,96587.15
2019-02-10T23:57:59.610Z,96587.84
